Abernant, United Kingdom
Current Conditions -  °F | °C
As of 12:50 AM on Monday 22 Dec 2014 (Local Time) from EGOP Reporting Station
Broken Clouds Broken Clouds  
Wind Chill: 52°   Ceiling: 300
Heat Index: 52°   Visibility: 2.3mi
Dew Point: 52°   Wind: 32mph
Humidity: 100%   Direction: 250°WSW
Pressure: 30.12"   Gusts: NA
Location:  51.82°N, 4.5°W
Report Text: EGOP 220050Z AUTO 25028KT 3800 // BKN003/// BKN015/// 11/11 Q1020
Loading
Personal Weather Stations






























Interactive Weather Map New forecast layout! Learn more

10-Day Weather Forecast

Advertisements
Track Severe Weather on mobile